sensor_id;sensor_type;location;lat;lon;timestamp;P1;durP1;ratioP1;P2;durP2;ratioP2
53299;SDS011;39187;48.476;8.310;2022-07-23T00:00:52;5.17;;;4.97;;
53299;SDS011;39187;48.476;8.310;2022-07-23T00:03:18;5.40;;;5.10;;
53299;SDS011;39187;48.476;8.310;2022-07-23T00:05:43;6.27;;;5.97;;
53299;SDS011;39187;48.476;8.310;2022-07-23T00:08:09;5.97;;;5.77;;
53299;SDS011;39187;48.476;8.310;2022-07-23T00:10:34;5.13;;;5.00;;
53299;SDS011;39187;48.476;8.310;2022-07-23T00:13:00;5.93;;;5.63;;
53299;SDS011;39187;48.476;8.310;2022-07-23T00:15:26;5.30;;;5.10;;
53299;SDS011;39187;48.476;8.310;2022-07-23T00:17:51;4.80;;;4.53;;
53299;SDS011;39187;48.476;8.310;2022-07-23T00:20:17;5.43;;;5.23;;
53299;SDS011;39187;48.476;8.310;2022-07-23T00:22:49;5.47;;;5.27;;
53299;SDS011;39187;48.476;8.310;2022-07-23T00:25:16;5.43;;;5.13;;
53299;SDS011;39187;48.476;8.310;2022-07-23T00:27:42;5.20;;;5.00;;
53299;SDS011;39187;48.476;8.310;2022-07-23T00:30:08;5.80;;;5.50;;
53299;SDS011;39187;48.476;8.310;2022-07-23T00:32:48;5.53;;;5.23;;
53299;SDS011;39187;48.476;8.310;2022-07-23T00:35:22;6.27;;;6.00;;
53299;SDS011;39187;48.476;8.310;2022-07-23T00:37:52;6.03;;;5.73;;
53299;SDS011;39187;48.476;8.310;2022-07-23T00:40:18;5.97;;;5.57;;
53299;SDS011;39187;48.476;8.310;2022-07-23T00:42:43;7.33;;;5.50;;
53299;SDS011;39187;48.476;8.310;2022-07-23T00:45:09;6.57;;;6.07;;
53299;SDS011;39187;48.476;8.310;2022-07-23T00:47:35;6.50;;;6.20;;
53299;SDS011;39187;48.476;8.310;2022-07-23T00:50:02;6.10;;;5.80;;
53299;SDS011;39187;48.476;8.310;2022-07-23T00:52:29;6.70;;;6.27;;
53299;SDS011;39187;48.476;8.310;2022-07-23T00:54:56;6.47;;;6.17;;
53299;SDS011;39187;48.476;8.310;2022-07-23T00:57:22;6.83;;;6.23;;
53299;SDS011;39187;48.476;8.310;2022-07-23T00:59:48;6.77;;;6.27;;
53299;SDS011;39187;48.476;8.310;2022-07-23T01:02:13;7.47;;;7.07;;
53299;SDS011;39187;48.476;8.310;2022-07-23T01:04:39;7.47;;;7.17;;
53299;SDS011;39187;48.476;8.310;2022-07-23T01:07:05;5.50;;;5.17;;
53299;SDS011;39187;48.476;8.310;2022-07-23T01:09:30;6.53;;;6.23;;
53299;SDS011;39187;48.476;8.310;2022-07-23T01:11:56;6.83;;;6.43;;
53299;SDS011;39187;48.476;8.310;2022-07-23T01:14:22;6.33;;;5.93;;
53299;SDS011;39187;48.476;8.310;2022-07-23T01:16:48;6.30;;;6.00;;
53299;SDS011;39187;48.476;8.310;2022-07-23T01:19:15;5.83;;;5.43;;
53299;SDS011;39187;48.476;8.310;2022-07-23T01:21:46;6.70;;;6.40;;
53299;SDS011;39187;48.476;8.310;2022-07-23T01:24:14;6.17;;;5.83;;
53299;SDS011;39187;48.476;8.310;2022-07-23T01:26:41;6.07;;;5.87;;
53299;SDS011;39187;48.476;8.310;2022-07-23T01:29:08;6.10;;;5.90;;
53299;SDS011;39187;48.476;8.310;2022-07-23T01:31:34;6.73;;;6.27;;
53299;SDS011;39187;48.476;8.310;2022-07-23T01:34:00;6.97;;;6.57;;
53299;SDS011;39187;48.476;8.310;2022-07-23T01:36:25;6.33;;;6.13;;
53299;SDS011;39187;48.476;8.310;2022-07-23T01:38:52;6.40;;;6.20;;
53299;SDS011;39187;48.476;8.310;2022-07-23T01:41:18;6.60;;;6.30;;
53299;SDS011;39187;48.476;8.310;2022-07-23T01:43:44;6.87;;;6.57;;
53299;SDS011;39187;48.476;8.310;2022-07-23T01:46:09;7.10;;;6.80;;
53299;SDS011;39187;48.476;8.310;2022-07-23T01:48:35;6.67;;;6.30;;
53299;SDS011;39187;48.476;8.310;2022-07-23T01:51:01;6.80;;;6.30;;
53299;SDS011;39187;48.476;8.310;2022-07-23T01:53:26;6.70;;;6.40;;
53299;SDS011;39187;48.476;8.310;2022-07-23T01:55:52;6.47;;;6.07;;
53299;SDS011;39187;48.476;8.310;2022-07-23T01:58:17;6.53;;;6.20;;
53299;SDS011;39187;48.476;8.310;2022-07-23T02:00:43;6.97;;;6.57;;
53299;SDS011;39187;48.476;8.310;2022-07-23T02:03:08;6.60;;;6.00;;
53299;SDS011;39187;48.476;8.310;2022-07-23T02:05:34;7.70;;;7.10;;
53299;SDS011;39187;48.476;8.310;2022-07-23T02:08:00;6.70;;;6.20;;
53299;SDS011;39187;48.476;8.310;2022-07-23T02:10:26;6.80;;;6.50;;
53299;SDS011;39187;48.476;8.310;2022-07-23T02:12:52;6.37;;;6.07;;
53299;SDS011;39187;48.476;8.310;2022-07-23T02:15:18;6.87;;;6.57;;
53299;SDS011;39187;48.476;8.310;2022-07-23T02:17:44;6.07;;;5.77;;
53299;SDS011;39187;48.476;8.310;2022-07-23T02:20:10;7.53;;;7.03;;
53299;SDS011;39187;48.476;8.310;2022-07-23T02:22:36;6.80;;;6.40;;
53299;SDS011;39187;48.476;8.310;2022-07-23T02:25:02;7.50;;;7.20;;
53299;SDS011;39187;48.476;8.310;2022-07-23T02:27:29;6.93;;;6.57;;
53299;SDS011;39187;48.476;8.310;2022-07-23T02:29:54;6.03;;;5.83;;
53299;SDS011;39187;48.476;8.310;2022-07-23T02:32:20;7.77;;;7.17;;
53299;SDS011;39187;48.476;8.310;2022-07-23T02:34:49;7.83;;;7.43;;
53299;SDS011;39187;48.476;8.310;2022-07-23T02:37:15;8.27;;;7.70;;
53299;SDS011;39187;48.476;8.310;2022-07-23T02:39:41;8.20;;;7.80;;
53299;SDS011;39187;48.476;8.310;2022-07-23T02:42:06;7.63;;;7.20;;
53299;SDS011;39187;48.476;8.310;2022-07-23T02:44:32;7.43;;;7.13;;
53299;SDS011;39187;48.476;8.310;2022-07-23T02:46:58;7.80;;;7.50;;
53299;SDS011;39187;48.476;8.310;2022-07-23T02:49:24;8.23;;;7.83;;
53299;SDS011;39187;48.476;8.310;2022-07-23T02:51:50;8.00;;;7.60;;
53299;SDS011;39187;48.476;8.310;2022-07-23T02:54:15;10.20;;;9.30;;
53299;SDS011;39187;48.476;8.310;2022-07-23T02:56:41;11.43;;;10.47;;
53299;SDS011;39187;48.476;8.310;2022-07-23T02:59:07;8.13;;;7.70;;
53299;SDS011;39187;48.476;8.310;2022-07-23T03:01:34;8.67;;;8.03;;
53299;SDS011;39187;48.476;8.310;2022-07-23T03:04:00;7.33;;;6.83;;
53299;SDS011;39187;48.476;8.310;2022-07-23T03:06:25;7.63;;;7.33;;
53299;SDS011;39187;48.476;8.310;2022-07-23T03:08:51;7.90;;;7.50;;
53299;SDS011;39187;48.476;8.310;2022-07-23T03:11:16;8.10;;;7.70;;
53299;SDS011;39187;48.476;8.310;2022-07-23T03:13:42;7.40;;;7.10;;
53299;SDS011;39187;48.476;8.310;2022-07-23T03:16:08;8.53;;;7.73;;
53299;SDS011;39187;48.476;8.310;2022-07-23T03:18:33;8.20;;;7.70;;
53299;SDS011;39187;48.476;8.310;2022-07-23T03:20:59;7.27;;;6.87;;
53299;SDS011;39187;48.476;8.310;2022-07-23T03:23:25;7.77;;;7.43;;
53299;SDS011;39187;48.476;8.310;2022-07-23T03:25:50;8.50;;;7.93;;
53299;SDS011;39187;48.476;8.310;2022-07-23T03:28:16;7.10;;;6.80;;
53299;SDS011;39187;48.476;8.310;2022-07-23T03:30:43;8.07;;;7.67;;
53299;SDS011;39187;48.476;8.310;2022-07-23T03:33:12;8.27;;;7.83;;
53299;SDS011;39187;48.476;8.310;2022-07-23T03:35:39;7.87;;;7.47;;
53299;SDS011;39187;48.476;8.310;2022-07-23T03:38:05;7.00;;;6.67;;
53299;SDS011;39187;48.476;8.310;2022-07-23T03:40:30;7.40;;;6.97;;
53299;SDS011;39187;48.476;8.310;2022-07-23T03:42:56;7.77;;;7.27;;
53299;SDS011;39187;48.476;8.310;2022-07-23T03:45:21;8.23;;;7.83;;
53299;SDS011;39187;48.476;8.310;2022-07-23T03:47:47;7.50;;;7.20;;
53299;SDS011;39187;48.476;8.310;2022-07-23T03:50:12;7.30;;;7.00;;
53299;SDS011;39187;48.476;8.310;2022-07-23T03:52:38;8.57;;;8.07;;
53299;SDS011;39187;48.476;8.310;2022-07-23T03:55:04;7.20;;;6.87;;
53299;SDS011;39187;48.476;8.310;2022-07-23T03:57:30;8.30;;;7.87;;
53299;SDS011;39187;48.476;8.310;2022-07-23T03:59:55;7.77;;;7.27;;
53299;SDS011;39187;48.476;8.310;2022-07-23T04:02:21;8.83;;;8.40;;
53299;SDS011;39187;48.476;8.310;2022-07-23T04:04:47;8.00;;;7.80;;
53299;SDS011;39187;48.476;8.310;2022-07-23T04:07:12;8.00;;;7.63;;
53299;SDS011;39187;48.476;8.310;2022-07-23T04:09:39;9.37;;;8.17;;
53299;SDS011;39187;48.476;8.310;2022-07-23T04:12:06;7.90;;;7.40;;
53299;SDS011;39187;48.476;8.310;2022-07-23T04:14:32;8.20;;;7.70;;
53299;SDS011;39187;48.476;8.310;2022-07-23T04:16:58;7.60;;;7.30;;
53299;SDS011;39187;48.476;8.310;2022-07-23T04:19:25;8.40;;;8.00;;
53299;SDS011;39187;48.476;8.310;2022-07-23T04:21:51;9.43;;;8.87;;
53299;SDS011;39187;48.476;8.310;2022-07-23T04:24:17;7.93;;;7.57;;
53299;SDS011;39187;48.476;8.310;2022-07-23T04:26:43;9.07;;;8.60;;
53299;SDS011;39187;48.476;8.310;2022-07-23T04:29:09;7.97;;;7.57;;
53299;SDS011;39187;48.476;8.310;2022-07-23T04:31:35;8.33;;;7.93;;
53299;SDS011;39187;48.476;8.310;2022-07-23T04:34:01;8.03;;;7.63;;
53299;SDS011;39187;48.476;8.310;2022-07-23T04:36:26;8.23;;;7.83;;
53299;SDS011;39187;48.476;8.310;2022-07-23T04:38:52;10.10;;;9.50;;
53299;SDS011;39187;48.476;8.310;2022-07-23T04:41:17;9.70;;;9.20;;
53299;SDS011;39187;48.476;8.310;2022-07-23T04:43:43;7.77;;;7.40;;
53299;SDS011;39187;48.476;8.310;2022-07-23T04:46:08;7.63;;;7.30;;
53299;SDS011;39187;48.476;8.310;2022-07-23T04:48:35;8.53;;;8.17;;
53299;SDS011;39187;48.476;8.310;2022-07-23T04:51:01;9.87;;;9.33;;
53299;SDS011;39187;48.476;8.310;2022-07-23T04:53:27;7.70;;;7.50;;
53299;SDS011;39187;48.476;8.310;2022-07-23T04:55:52;8.30;;;7.80;;
53299;SDS011;39187;48.476;8.310;2022-07-23T04:58:18;7.20;;;6.80;;
53299;SDS011;39187;48.476;8.310;2022-07-23T05:00:44;8.70;;;7.97;;
53299;SDS011;39187;48.476;8.310;2022-07-23T05:03:09;9.80;;;9.03;;
53299;SDS011;39187;48.476;8.310;2022-07-23T05:05:35;8.80;;;8.20;;
53299;SDS011;39187;48.476;8.310;2022-07-23T05:08:01;8.90;;;8.13;;
53299;SDS011;39187;48.476;8.310;2022-07-23T05:10:27;9.27;;;8.77;;
53299;SDS011;39187;48.476;8.310;2022-07-23T05:12:52;8.10;;;7.80;;
53299;SDS011;39187;48.476;8.310;2022-07-23T05:15:18;7.60;;;7.30;;
53299;SDS011;39187;48.476;8.310;2022-07-23T05:17:43;8.27;;;7.97;;
53299;SDS011;39187;48.476;8.310;2022-07-23T05:20:09;9.20;;;8.77;;
53299;SDS011;39187;48.476;8.310;2022-07-23T05:22:35;8.33;;;7.83;;
53299;SDS011;39187;48.476;8.310;2022-07-23T05:25:01;7.70;;;7.30;;
53299;SDS011;39187;48.476;8.310;2022-07-23T05:27:26;8.43;;;7.80;;
53299;SDS011;39187;48.476;8.310;2022-07-23T05:29:52;7.97;;;7.47;;
53299;SDS011;39187;48.476;8.310;2022-07-23T05:32:17;8.90;;;8.50;;
53299;SDS011;39187;48.476;8.310;2022-07-23T05:34:43;7.00;;;6.80;;
53299;SDS011;39187;48.476;8.310;2022-07-23T05:37:08;9.50;;;9.00;;
53299;SDS011;39187;48.476;8.310;2022-07-23T05:39:34;11.83;;;10.83;;
53299;SDS011;39187;48.476;8.310;2022-07-23T05:41:59;10.37;;;9.57;;
53299;SDS011;39187;48.476;8.310;2022-07-23T05:44:25;8.73;;;8.13;;
53299;SDS011;39187;48.476;8.310;2022-07-23T05:46:52;7.60;;;7.30;;
53299;SDS011;39187;48.476;8.310;2022-07-23T05:49:18;7.10;;;6.80;;
53299;SDS011;39187;48.476;8.310;2022-07-23T05:51:43;6.80;;;6.57;;
53299;SDS011;39187;48.476;8.310;2022-07-23T05:54:09;8.70;;;8.30;;
53299;SDS011;39187;48.476;8.310;2022-07-23T05:56:34;8.80;;;8.30;;
53299;SDS011;39187;48.476;8.310;2022-07-23T05:59:00;7.23;;;6.73;;
53299;SDS011;39187;48.476;8.310;2022-07-23T06:01:26;7.97;;;7.57;;
53299;SDS011;39187;48.476;8.310;2022-07-23T06:03:51;7.43;;;7.13;;
53299;SDS011;39187;48.476;8.310;2022-07-23T06:06:17;6.53;;;6.23;;
53299;SDS011;39187;48.476;8.310;2022-07-23T06:08:43;6.90;;;6.40;;
53299;SDS011;39187;48.476;8.310;2022-07-23T06:11:08;6.67;;;6.37;;
53299;SDS011;39187;48.476;8.310;2022-07-23T06:13:34;5.77;;;5.53;;
53299;SDS011;39187;48.476;8.310;2022-07-23T06:15:59;4.90;;;4.70;;
53299;SDS011;39187;48.476;8.310;2022-07-23T06:18:25;6.03;;;5.73;;
53299;SDS011;39187;48.476;8.310;2022-07-23T06:20:50;5.00;;;4.80;;
53299;SDS011;39187;48.476;8.310;2022-07-23T06:23:16;5.57;;;5.37;;
53299;SDS011;39187;48.476;8.310;2022-07-23T06:25:41;5.37;;;5.17;;
53299;SDS011;39187;48.476;8.310;2022-07-23T06:28:07;6.83;;;6.53;;
53299;SDS011;39187;48.476;8.310;2022-07-23T06:30:32;6.30;;;6.10;;
53299;SDS011;39187;48.476;8.310;2022-07-23T06:32:58;5.80;;;5.30;;
53299;SDS011;39187;48.476;8.310;2022-07-23T06:35:23;5.40;;;5.00;;
53299;SDS011;39187;48.476;8.310;2022-07-23T06:37:50;4.57;;;4.47;;
53299;SDS011;39187;48.476;8.310;2022-07-23T06:40:15;5.90;;;5.60;;
53299;SDS011;39187;48.476;8.310;2022-07-23T06:42:41;5.07;;;4.70;;
53299;SDS011;39187;48.476;8.310;2022-07-23T06:45:07;5.07;;;4.83;;
53299;SDS011;39187;48.476;8.310;2022-07-23T06:47:33;5.47;;;5.27;;
53299;SDS011;39187;48.476;8.310;2022-07-23T06:49:58;5.00;;;4.77;;
53299;SDS011;39187;48.476;8.310;2022-07-23T06:52:24;4.63;;;4.33;;
53299;SDS011;39187;48.476;8.310;2022-07-23T06:54:51;5.27;;;4.87;;
53299;SDS011;39187;48.476;8.310;2022-07-23T06:57:17;5.23;;;4.97;;
53299;SDS011;39187;48.476;8.310;2022-07-23T06:59:42;5.30;;;4.90;;
53299;SDS011;39187;48.476;8.310;2022-07-23T07:02:08;5.50;;;5.30;;
53299;SDS011;39187;48.476;8.310;2022-07-23T07:04:33;4.90;;;4.70;;
53299;SDS011;39187;48.476;8.310;2022-07-23T07:06:59;4.90;;;4.70;;
53299;SDS011;39187;48.476;8.310;2022-07-23T07:09:25;5.10;;;4.93;;
53299;SDS011;39187;48.476;8.310;2022-07-23T07:11:50;4.97;;;4.77;;
53299;SDS011;39187;48.476;8.310;2022-07-23T07:14:16;5.27;;;4.97;;
53299;SDS011;39187;48.476;8.310;2022-07-23T07:16:41;5.80;;;5.40;;
53299;SDS011;39187;48.476;8.310;2022-07-23T07:19:07;6.03;;;5.73;;
53299;SDS011;39187;48.476;8.310;2022-07-23T07:21:33;6.10;;;5.67;;
53299;SDS011;39187;48.476;8.310;2022-07-23T07:23:59;5.70;;;5.50;;
53299;SDS011;39187;48.476;8.310;2022-07-23T07:26:25;5.30;;;5.10;;
53299;SDS011;39187;48.476;8.310;2022-07-23T07:28:51;5.60;;;5.40;;
53299;SDS011;39187;48.476;8.310;2022-07-23T07:31:16;6.13;;;5.63;;
53299;SDS011;39187;48.476;8.310;2022-07-23T07:33:42;7.73;;;7.20;;
53299;SDS011;39187;48.476;8.310;2022-07-23T07:36:08;6.23;;;6.03;;
53299;SDS011;39187;48.476;8.310;2022-07-23T07:38:33;7.03;;;6.63;;
53299;SDS011;39187;48.476;8.310;2022-07-23T07:40:59;6.53;;;6.23;;
53299;SDS011;39187;48.476;8.310;2022-07-23T07:43:25;7.50;;;7.20;;
53299;SDS011;39187;48.476;8.310;2022-07-23T07:45:50;7.17;;;6.87;;
53299;SDS011;39187;48.476;8.310;2022-07-23T07:48:16;6.87;;;6.57;;
53299;SDS011;39187;48.476;8.310;2022-07-23T07:50:41;7.20;;;6.90;;
53299;SDS011;39187;48.476;8.310;2022-07-23T07:53:07;6.83;;;6.33;;
53299;SDS011;39187;48.476;8.310;2022-07-23T07:55:34;7.90;;;7.20;;
53299;SDS011;39187;48.476;8.310;2022-07-23T07:58:00;6.90;;;6.60;;
53299;SDS011;39187;48.476;8.310;2022-07-23T08:00:25;6.47;;;6.27;;
53299;SDS011;39187;48.476;8.310;2022-07-23T08:02:52;7.30;;;6.80;;
53299;SDS011;39187;48.476;8.310;2022-07-23T08:05:20;6.17;;;5.73;;
53299;SDS011;39187;48.476;8.310;2022-07-23T08:07:46;6.63;;;6.33;;
53299;SDS011;39187;48.476;8.310;2022-07-23T08:10:12;7.73;;;7.33;;
53299;SDS011;39187;48.476;8.310;2022-07-23T08:12:39;7.17;;;6.87;;
53299;SDS011;39187;48.476;8.310;2022-07-23T08:15:05;7.53;;;6.93;;
53299;SDS011;39187;48.476;8.310;2022-07-23T08:17:31;7.60;;;7.03;;
53299;SDS011;39187;48.476;8.310;2022-07-23T08:19:56;6.93;;;6.63;;
53299;SDS011;39187;48.476;8.310;2022-07-23T08:22:22;7.53;;;7.23;;
53299;SDS011;39187;48.476;8.310;2022-07-23T08:24:47;6.93;;;6.60;;
53299;SDS011;39187;48.476;8.310;2022-07-23T08:27:13;6.37;;;6.13;;
53299;SDS011;39187;48.476;8.310;2022-07-23T08:29:38;6.33;;;6.03;;
53299;SDS011;39187;48.476;8.310;2022-07-23T08:32:04;6.33;;;6.03;;
53299;SDS011;39187;48.476;8.310;2022-07-23T08:34:30;6.33;;;6.03;;
53299;SDS011;39187;48.476;8.310;2022-07-23T08:36:55;6.87;;;6.43;;
53299;SDS011;39187;48.476;8.310;2022-07-23T08:39:21;7.13;;;6.83;;
53299;SDS011;39187;48.476;8.310;2022-07-23T08:41:47;7.70;;;7.30;;
53299;SDS011;39187;48.476;8.310;2022-07-23T08:44:13;7.47;;;6.93;;
53299;SDS011;39187;48.476;8.310;2022-07-23T08:46:41;7.77;;;7.47;;
53299;SDS011;39187;48.476;8.310;2022-07-23T08:49:09;6.13;;;5.90;;
53299;SDS011;39187;48.476;8.310;2022-07-23T08:51:35;6.40;;;6.10;;
53299;SDS011;39187;48.476;8.310;2022-07-23T08:54:00;7.07;;;6.60;;
53299;SDS011;39187;48.476;8.310;2022-07-23T08:56:26;7.17;;;6.87;;
53299;SDS011;39187;48.476;8.310;2022-07-23T08:58:53;6.60;;;6.30;;
53299;SDS011;39187;48.476;8.310;2022-07-23T09:01:19;7.27;;;6.77;;
53299;SDS011;39187;48.476;8.310;2022-07-23T09:03:45;8.07;;;7.50;;
53299;SDS011;39187;48.476;8.310;2022-07-23T09:06:10;6.20;;;5.90;;
53299;SDS011;39187;48.476;8.310;2022-07-23T09:08:37;6.97;;;6.67;;
53299;SDS011;39187;48.476;8.310;2022-07-23T09:11:04;7.70;;;7.33;;
53299;SDS011;39187;48.476;8.310;2022-07-23T09:13:32;7.67;;;7.30;;
53299;SDS011;39187;48.476;8.310;2022-07-23T09:16:04;7.70;;;7.40;;
53299;SDS011;39187;48.476;8.310;2022-07-23T09:18:39;8.97;;;8.10;;
53299;SDS011;39187;48.476;8.310;2022-07-23T09:21:10;6.63;;;6.33;;
53299;SDS011;39187;48.476;8.310;2022-07-23T09:26:44;7.40;;;7.10;;
53299;SDS011;39187;48.476;8.310;2022-07-23T09:34:09;9.03;;;8.63;;
53299;SDS011;39187;48.476;8.310;2022-07-23T09:36:37;10.20;;;9.50;;
53299;SDS011;39187;48.476;8.310;2022-07-23T09:39:03;8.27;;;7.87;;
53299;SDS011;39187;48.476;8.310;2022-07-23T09:41:36;7.20;;;6.90;;
53299;SDS011;39187;48.476;8.310;2022-07-23T09:44:07;7.43;;;6.93;;
53299;SDS011;39187;48.476;8.310;2022-07-23T09:46:38;6.83;;;6.53;;
53299;SDS011;39187;48.476;8.310;2022-07-23T09:49:14;7.63;;;7.23;;
53299;SDS011;39187;48.476;8.310;2022-07-23T09:51:48;7.80;;;7.30;;
53299;SDS011;39187;48.476;8.310;2022-07-23T09:54:22;6.53;;;6.23;;
53299;SDS011;39187;48.476;8.310;2022-07-23T09:57:09;7.67;;;6.90;;
53299;SDS011;39187;48.476;8.310;2022-07-23T09:59:40;7.80;;;7.40;;
53299;SDS011;39187;48.476;8.310;2022-07-23T10:02:07;7.40;;;7.10;;
53299;SDS011;39187;48.476;8.310;2022-07-23T10:04:34;7.53;;;7.03;;
53299;SDS011;39187;48.476;8.310;2022-07-23T10:07:01;6.80;;;6.50;;
53299;SDS011;39187;48.476;8.310;2022-07-23T10:09:31;7.50;;;7.03;;
53299;SDS011;39187;48.476;8.310;2022-07-23T10:12:02;7.50;;;7.30;;
53299;SDS011;39187;48.476;8.310;2022-07-23T10:14:38;8.40;;;7.90;;
53299;SDS011;39187;48.476;8.310;2022-07-23T10:17:04;7.77;;;7.27;;
53299;SDS011;39187;48.476;8.310;2022-07-23T10:19:30;7.33;;;7.03;;
53299;SDS011;39187;48.476;8.310;2022-07-23T10:22:00;7.60;;;7.33;;
53299;SDS011;39187;48.476;8.310;2022-07-23T10:29:51;8.30;;;7.90;;
53299;SDS011;39187;48.476;8.310;2022-07-23T10:32:26;7.50;;;7.30;;
53299;SDS011;39187;48.476;8.310;2022-07-23T10:35:18;8.77;;;8.10;;
53299;SDS011;39187;48.476;8.310;2022-07-23T10:38:18;7.53;;;7.23;;
53299;SDS011;39187;48.476;8.310;2022-07-23T10:40:59;7.60;;;7.30;;
53299;SDS011;39187;48.476;8.310;2022-07-23T10:43:26;9.00;;;7.60;;
53299;SDS011;39187;48.476;8.310;2022-07-23T10:45:53;8.30;;;8.00;;
53299;SDS011;39187;48.476;8.310;2022-07-23T10:48:20;7.83;;;7.43;;
53299;SDS011;39187;48.476;8.310;2022-07-23T10:54:14;7.73;;;7.27;;
53299;SDS011;39187;48.476;8.310;2022-07-23T10:59:29;8.07;;;7.77;;
53299;SDS011;39187;48.476;8.310;2022-07-23T11:02:16;6.97;;;6.53;;
53299;SDS011;39187;48.476;8.310;2022-07-23T11:04:48;6.93;;;6.60;;
53299;SDS011;39187;48.476;8.310;2022-07-23T11:07:16;6.73;;;6.43;;
53299;SDS011;39187;48.476;8.310;2022-07-23T11:09:42;7.90;;;7.50;;
53299;SDS011;39187;48.476;8.310;2022-07-23T11:17:23;7.33;;;6.93;;
53299;SDS011;39187;48.476;8.310;2022-07-23T11:22:54;8.30;;;7.80;;
53299;SDS011;39187;48.476;8.310;2022-07-23T11:27:47;6.90;;;6.60;;
53299;SDS011;39187;48.476;8.310;2022-07-23T11:32:52;8.37;;;8.00;;
53299;SDS011;39187;48.476;8.310;2022-07-23T11:35:20;11.30;;;10.40;;
53299;SDS011;39187;48.476;8.310;2022-07-23T11:37:51;8.10;;;7.60;;
53299;SDS011;39187;48.476;8.310;2022-07-23T11:40:24;8.43;;;7.80;;
53299;SDS011;39187;48.476;8.310;2022-07-23T11:42:59;8.83;;;8.23;;
53299;SDS011;39187;48.476;8.310;2022-07-23T11:45:31;8.20;;;7.80;;
53299;SDS011;39187;48.476;8.310;2022-07-23T11:47:59;6.80;;;6.60;;
53299;SDS011;39187;48.476;8.310;2022-07-23T11:50:25;8.87;;;8.13;;
53299;SDS011;39187;48.476;8.310;2022-07-23T11:52:52;7.80;;;7.50;;
53299;SDS011;39187;48.476;8.310;2022-07-23T11:55:18;7.30;;;7.00;;
53299;SDS011;39187;48.476;8.310;2022-07-23T11:57:44;8.83;;;8.43;;
53299;SDS011;39187;48.476;8.310;2022-07-23T12:00:11;10.67;;;9.77;;
53299;SDS011;39187;48.476;8.310;2022-07-23T12:02:40;8.37;;;7.83;;
53299;SDS011;39187;48.476;8.310;2022-07-23T12:05:07;7.93;;;7.53;;
53299;SDS011;39187;48.476;8.310;2022-07-23T12:07:39;8.43;;;7.90;;
53299;SDS011;39187;48.476;8.310;2022-07-23T12:15:08;8.27;;;7.77;;
53299;SDS011;39187;48.476;8.310;2022-07-23T12:17:38;9.33;;;8.83;;
53299;SDS011;39187;48.476;8.310;2022-07-23T12:20:05;8.13;;;7.73;;
53299;SDS011;39187;48.476;8.310;2022-07-23T12:22:37;8.77;;;8.20;;
53299;SDS011;39187;48.476;8.310;2022-07-23T12:25:06;9.03;;;8.47;;
53299;SDS011;39187;48.476;8.310;2022-07-23T12:27:37;8.03;;;7.73;;
53299;SDS011;39187;48.476;8.310;2022-07-23T12:30:16;8.20;;;7.80;;
53299;SDS011;39187;48.476;8.310;2022-07-23T12:32:44;8.23;;;7.80;;
53299;SDS011;39187;48.476;8.310;2022-07-23T12:35:11;7.47;;;7.17;;
53299;SDS011;39187;48.476;8.310;2022-07-23T12:37:37;8.87;;;8.20;;
53299;SDS011;39187;48.476;8.310;2022-07-23T12:40:22;8.40;;;7.97;;
53299;SDS011;39187;48.476;8.310;2022-07-23T12:43:02;7.67;;;7.37;;
53299;SDS011;39187;48.476;8.310;2022-07-23T12:45:46;8.73;;;8.33;;
53299;SDS011;39187;48.476;8.310;2022-07-23T12:48:18;8.90;;;8.40;;
53299;SDS011;39187;48.476;8.310;2022-07-23T12:50:49;7.67;;;7.20;;
53299;SDS011;39187;48.476;8.310;2022-07-23T12:53:24;8.40;;;8.00;;
53299;SDS011;39187;48.476;8.310;2022-07-23T13:01:38;8.03;;;7.63;;
53299;SDS011;39187;48.476;8.310;2022-07-23T13:04:06;7.60;;;7.30;;
53299;SDS011;39187;48.476;8.310;2022-07-23T13:06:57;8.70;;;8.20;;
53299;SDS011;39187;48.476;8.310;2022-07-23T13:09:25;8.30;;;7.80;;
53299;SDS011;39187;48.476;8.310;2022-07-23T13:11:52;8.00;;;7.70;;
53299;SDS011;39187;48.476;8.310;2022-07-23T13:14:20;8.17;;;7.73;;
53299;SDS011;39187;48.476;8.310;2022-07-23T13:16:46;9.77;;;9.23;;
53299;SDS011;39187;48.476;8.310;2022-07-23T13:19:12;9.33;;;8.83;;
53299;SDS011;39187;48.476;8.310;2022-07-23T13:21:39;8.43;;;7.93;;
53299;SDS011;39187;48.476;8.310;2022-07-23T13:24:06;8.63;;;8.23;;
53299;SDS011;39187;48.476;8.310;2022-07-23T13:26:32;8.80;;;8.33;;
53299;SDS011;39187;48.476;8.310;2022-07-23T13:28:57;8.20;;;7.87;;
53299;SDS011;39187;48.476;8.310;2022-07-23T13:31:23;9.27;;;8.60;;
53299;SDS011;39187;48.476;8.310;2022-07-23T13:33:49;8.57;;;8.13;;
53299;SDS011;39187;48.476;8.310;2022-07-23T13:36:14;8.77;;;8.37;;
53299;SDS011;39187;48.476;8.310;2022-07-23T13:38:40;9.60;;;9.00;;
53299;SDS011;39187;48.476;8.310;2022-07-23T13:41:06;8.60;;;8.30;;
53299;SDS011;39187;48.476;8.310;2022-07-23T13:43:32;8.53;;;8.03;;
53299;SDS011;39187;48.476;8.310;2022-07-23T13:45:58;8.90;;;8.03;;
53299;SDS011;39187;48.476;8.310;2022-07-23T13:48:24;15.03;;;13.60;;
53299;SDS011;39187;48.476;8.310;2022-07-23T13:50:50;9.90;;;9.47;;
53299;SDS011;39187;48.476;8.310;2022-07-23T13:53:20;8.80;;;8.30;;
53299;SDS011;39187;48.476;8.310;2022-07-23T13:55:48;8.77;;;8.47;;
53299;SDS011;39187;48.476;8.310;2022-07-23T13:58:15;9.13;;;8.67;;
53299;SDS011;39187;48.476;8.310;2022-07-23T14:00:43;8.23;;;7.90;;
53299;SDS011;39187;48.476;8.310;2022-07-23T14:03:14;9.20;;;8.70;;
53299;SDS011;39187;48.476;8.310;2022-07-23T14:05:41;9.43;;;8.90;;
53299;SDS011;39187;48.476;8.310;2022-07-23T14:08:07;10.40;;;9.53;;
53299;SDS011;39187;48.476;8.310;2022-07-23T14:10:33;8.27;;;7.87;;
53299;SDS011;39187;48.476;8.310;2022-07-23T14:12:58;8.50;;;8.00;;
53299;SDS011;39187;48.476;8.310;2022-07-23T14:15:25;7.87;;;7.53;;
53299;SDS011;39187;48.476;8.310;2022-07-23T14:17:52;9.97;;;9.23;;
53299;SDS011;39187;48.476;8.310;2022-07-23T14:20:19;8.50;;;8.00;;
53299;SDS011;39187;48.476;8.310;2022-07-23T14:22:45;12.73;;;8.40;;
53299;SDS011;39187;48.476;8.310;2022-07-23T14:25:11;8.77;;;8.37;;
53299;SDS011;39187;48.476;8.310;2022-07-23T14:27:37;8.93;;;8.40;;
53299;SDS011;39187;48.476;8.310;2022-07-23T14:30:08;8.80;;;8.17;;
53299;SDS011;39187;48.476;8.310;2022-07-23T14:32:35;11.13;;;10.43;;
53299;SDS011;39187;48.476;8.310;2022-07-23T14:35:01;8.20;;;7.90;;
53299;SDS011;39187;48.476;8.310;2022-07-23T14:37:27;9.70;;;8.77;;
53299;SDS011;39187;48.476;8.310;2022-07-23T14:39:53;7.87;;;7.47;;
53299;SDS011;39187;48.476;8.310;2022-07-23T14:42:19;8.93;;;8.63;;
53299;SDS011;39187;48.476;8.310;2022-07-23T14:44:44;8.37;;;7.93;;
53299;SDS011;39187;48.476;8.310;2022-07-23T14:47:10;8.87;;;8.37;;
53299;SDS011;39187;48.476;8.310;2022-07-23T14:49:36;8.40;;;7.70;;
53299;SDS011;39187;48.476;8.310;2022-07-23T14:52:02;8.50;;;8.03;;
53299;SDS011;39187;48.476;8.310;2022-07-23T14:54:29;8.90;;;8.30;;
53299;SDS011;39187;48.476;8.310;2022-07-23T14:56:55;10.27;;;9.60;;
53299;SDS011;39187;48.476;8.310;2022-07-23T14:59:21;10.70;;;10.00;;
53299;SDS011;39187;48.476;8.310;2022-07-23T15:01:48;8.33;;;7.93;;
53299;SDS011;39187;48.476;8.310;2022-07-23T15:04:13;9.70;;;9.23;;
53299;SDS011;39187;48.476;8.310;2022-07-23T15:06:39;9.77;;;8.70;;
53299;SDS011;39187;48.476;8.310;2022-07-23T15:09:05;8.70;;;8.10;;
53299;SDS011;39187;48.476;8.310;2022-07-23T15:11:31;8.67;;;8.17;;
53299;SDS011;39187;48.476;8.310;2022-07-23T15:14:02;8.37;;;7.90;;
53299;SDS011;39187;48.476;8.310;2022-07-23T15:16:31;8.40;;;7.97;;
53299;SDS011;39187;48.476;8.310;2022-07-23T15:18:57;13.13;;;8.83;;
53299;SDS011;39187;48.476;8.310;2022-07-23T15:21:23;8.03;;;7.53;;
53299;SDS011;39187;48.476;8.310;2022-07-23T15:23:49;9.90;;;9.20;;
53299;SDS011;39187;48.476;8.310;2022-07-23T15:26:15;9.23;;;8.63;;
53299;SDS011;39187;48.476;8.310;2022-07-23T15:28:41;8.70;;;7.97;;
53299;SDS011;39187;48.476;8.310;2022-07-23T15:31:06;9.23;;;8.63;;